Details From YPJT - Jandakot
To YGEL - Geraldton
Flight Number -
Tags decoded
Created
Modified
Stats Distance 209 nm / 387 km
Max Altitude 0 ft / 0 m
Waypoints 3
Social Downloads 1
Likes 0
Share VATSIM

Download

Looking for another format? Having issues loading an existing format? Contact us
Advertisement - Login to hide

Notes

Requested: YPJT GURAK YGEL

Route

YPJT GURAK YGEL

ID Type Via Altitude Latitude Longitude Leg Dist Tot Dist Heading (true) Name
O YPJT APT - 0 ft / 0 m -32.09888˚ 115.87956˚ - 0 nm - Jandakot
GURAK FIX - 0 ft / 0 m -30.86493˚ 115.64867˚ 75 nm 75 nm 351° / 351° -
O YGEL APT - 0 ft / 0 m -28.79149˚ 114.70495˚ 133 nm 208 nm 338° / 339° Geraldton

Altitude Profile

Advertisement - Login to hide

Weather


0- 5 10 15 20 25 30 35+ Temperature / ° C

Clouds and Precipitation
Forecast for 2017-12-13 12:00 UTC. Updated 16 minutes ago

Ground ~20,000 ft ~40,000 ft Winds

YPJT

Details ICAO YPJT (JAD)
Name Jandakot
Region Australia
Timezone Australia/Perth (UTC+8.0)
Stats Elevation 99 ft / 30 m (AMSL)
Location -32.098877° 115.879564°
Runways 3
Magnetic Variation 1.771° W

METAR

YPJT 130700Z AUTO 25019KT 9999 // SCT041 25/12 Q1016 RF00.0/000.0

Decode

TAF

TAF AMD YPJT 130706Z 1307/1324 23018KT CAVOK FM131200 18012KT CAVOK FM131800 12010KT CAVOK

Decode

Departure Runways

ID Width Length Bearing (true) Bearing (mag) Surface Threshold Offset Overrun Length
06L 98 ft / 30 m 4,566 ft / 1,392 m 54.30° 56.07° Asphalt 387 ft / 118 m 0 ft / 0 m
06R 62 ft / 19 m 3,767 ft / 1,148 m 54.37° 56.14° Asphalt 0 ft / 0 m 0 ft / 0 m
12 98 ft / 30 m 3,242 ft / 988 m 114.50° 116.27° Asphalt 0 ft / 0 m 0 ft / 0 m
24L 62 ft / 19 m 3,767 ft / 1,148 m 234.37° 236.14° Asphalt 0 ft / 0 m 0 ft / 0 m
24R 98 ft / 30 m 4,566 ft / 1,392 m 234.30° 236.07° Asphalt 482 ft / 147 m 0 ft / 0 m
30 98 ft / 30 m 3,242 ft / 988 m 294.50° 296.27° Asphalt 0 ft / 0 m 0 ft / 0 m

YGEL

Details ICAO YGEL (GET)
Name Geraldton
Region Australia
Timezone Australia/Perth (UTC+8.0)
Stats Elevation 121 ft / 37 m (AMSL)
Location -28.791486° 114.704952°
Runways 3
Magnetic Variation 1.080° W

METAR

YGEL 130700Z AUTO 19024KT 9999 // NCD 25/14 Q1014

Decode

TAF

TAF AMD YGEL 130036Z 1300/1318 18020KT 9999 SCT030 FM130300 20020KT CAVOK FM131500 16014KT CAVOK

Decode

Destination Runways

ID Width Length Bearing (true) Bearing (mag) Surface Threshold Offset Overrun Length
03 148 ft / 45 m 6,518 ft / 1,987 m 18.30° 19.38° Asphalt 0 ft / 0 m 194 ft / 59 m
06 102 ft / 31 m 2,253 ft / 687 m 79.36° 80.44° Dirt 0 ft / 0 m 561 ft / 171 m
14 164 ft / 50 m 3,106 ft / 947 m 142.42° 143.50° Dirt 0 ft / 0 m 0 ft / 0 m
21 148 ft / 45 m 6,518 ft / 1,987 m 198.30° 199.38° Asphalt 0 ft / 0 m 220 ft / 67 m
24 102 ft / 31 m 2,253 ft / 687 m 259.36° 260.44° Dirt 0 ft / 0 m 135 ft / 41 m
32 164 ft / 50 m 3,106 ft / 947 m 322.41° 323.49° Dirt 0 ft / 0 m 0 ft / 0 m

Popular Alternatives